createdAt,value
2022-10-22T00:00:58.454Z,60056.06
2022-10-22T00:03:24.945Z,60205.19
2022-10-22T00:05:51.446Z,60064.34
2022-10-22T00:08:17.967Z,60445.41
2022-10-22T00:10:44.509Z,60095.41
2022-10-22T00:13:11.365Z,60112.00
2022-10-22T00:15:37.837Z,60114.06
2022-10-22T00:18:04.377Z,60230.03
2022-10-22T00:20:30.850Z,60372.94
2022-10-22T00:22:57.304Z,60399.84
2022-10-22T00:25:23.676Z,60083.00
2022-10-22T00:27:50.061Z,60093.34
2022-10-22T00:30:16.517Z,60074.72
2022-10-22T00:32:43.108Z,60020.88
2022-10-22T00:35:09.696Z,60072.63
2022-10-22T00:37:36.126Z,60418.50
2022-10-22T00:40:04.147Z,60116.13
2022-10-22T00:42:30.727Z,60140.97
2022-10-22T00:45:12.218Z,60101.63
2022-10-22T00:47:43.690Z,60120.28
2022-10-22T00:50:18.361Z,60155.47
2022-10-22T00:52:44.753Z,60134.75
2022-10-22T00:55:11.557Z,60101.63
2022-10-22T00:57:38.013Z,60085.06
2022-10-22T01:00:06.279Z,60089.19
2022-10-22T01:02:33.123Z,60140.97
2022-10-22T01:04:59.619Z,60364.63
2022-10-22T01:07:26.303Z,60114.06
2022-10-22T01:10:09.316Z,60130.63
2022-10-22T01:13:14.330Z,60145.13
2022-10-22T01:15:50.876Z,60122.34
2022-10-22T01:18:24.213Z,60138.91
2022-10-22T01:21:02.874Z,60174.13
2022-10-22T01:23:32.253Z,60198.97
2022-10-22T01:26:05.450Z,60188.59
2022-10-22T01:28:57.280Z,60151.34
2022-10-22T01:31:25.703Z,60188.59
2022-10-22T01:33:53.783Z,60097.50
2022-10-22T01:36:21.022Z,60600.75
2022-10-22T01:38:48.168Z,60184.47
2022-10-22T01:41:14.675Z,60488.91
2022-10-22T01:43:41.081Z,60207.25
2022-10-22T01:46:10.266Z,60186.53
2022-10-22T01:49:14.923Z,60134.75
2022-10-22T01:52:04.475Z,60161.69
2022-10-22T01:54:33.947Z,60149.25
2022-10-22T01:57:42.030Z,60213.47
2022-10-22T02:00:11.161Z,60205.19
2022-10-22T02:03:00.600Z,60207.25
2022-10-22T02:05:34.116Z,60163.75
2022-10-22T02:08:07.555Z,60165.81
2022-10-22T02:10:34.135Z,60056.06
2022-10-22T02:13:01.414Z,60203.09
2022-10-22T02:15:29.622Z,60182.41
2022-10-22T02:17:57.218Z,60573.81
2022-10-22T02:20:27.932Z,60107.84
2022-10-22T02:22:55.606Z,60188.59
2022-10-22T02:25:23.390Z,60093.34
2022-10-22T02:27:58.395Z,60054.00
2022-10-22T02:30:25.204Z,60134.75
2022-10-22T02:33:07.588Z,60234.16
2022-10-22T02:35:35.143Z,60089.19
2022-10-22T02:38:02.228Z,60155.47
2022-10-22T02:40:30.757Z,60499.25
2022-10-22T02:42:57.159Z,60147.19
2022-10-22T02:45:23.613Z,60105.78
2022-10-22T02:47:50.059Z,60020.88
2022-10-22T02:50:16.801Z,60180.31
2022-10-22T02:52:43.510Z,60186.53
2022-10-22T02:55:10.193Z,60174.13
2022-10-22T02:57:36.826Z,60259.03
2022-10-22T03:00:06.052Z,60176.19
2022-10-22T03:02:32.439Z,60201.03
2022-10-22T03:04:58.826Z,60217.59
2022-10-22T03:07:25.228Z,60236.25
2022-10-22T03:09:51.667Z,60238.31
2022-10-22T03:12:18.048Z,60147.19
2022-10-22T03:14:44.464Z,60147.19
2022-10-22T03:17:10.969Z,60203.09
2022-10-22T03:19:37.690Z,60169.97
2022-10-22T03:22:10.390Z,60196.91
2022-10-22T03:24:42.421Z,60169.97
2022-10-22T03:27:09.146Z,60221.75
2022-10-22T03:29:37.640Z,60201.03
2022-10-22T03:32:04.138Z,60379.13
2022-10-22T03:34:30.530Z,60201.03
2022-10-22T03:36:58.770Z,60225.88
2022-10-22T03:39:25.316Z,60155.47
2022-10-22T03:41:52.479Z,60205.19
2022-10-22T03:44:19.221Z,60136.84
2022-10-22T03:46:45.624Z,60192.75
2022-10-22T03:49:11.981Z,60370.84
2022-10-22T03:51:38.368Z,60180.31
2022-10-22T03:54:05.277Z,60140.97
2022-10-22T03:56:32.009Z,60198.97
2022-10-22T03:58:59.992Z,60416.41
2022-10-22T04:01:27.739Z,60126.47
2022-10-22T04:03:54.629Z,60246.59
2022-10-22T04:06:21.369Z,60091.28
2022-10-22T04:08:47.810Z,60213.47
2022-10-22T04:11:15.464Z,60143.03
2022-10-22T04:13:42.432Z,60122.34
2022-10-22T04:16:20.910Z,60136.84
2022-10-22T04:18:48.638Z,60134.75
2022-10-22T04:21:17.891Z,60147.19
2022-10-22T04:23:50.093Z,60151.34
2022-10-22T04:26:17.567Z,60120.28
2022-10-22T04:28:44.577Z,60145.13
2022-10-22T04:31:12.851Z,60180.31
2022-10-22T04:33:39.689Z,60165.81
2022-10-22T04:36:09.968Z,60138.91
2022-10-22T04:38:36.366Z,60221.75
2022-10-22T04:41:11.276Z,60188.59
2022-10-22T04:43:37.883Z,60196.91
2022-10-22T04:46:04.516Z,60174.13
2022-10-22T04:48:30.889Z,60136.84
2022-10-22T04:50:58.887Z,60128.56
2022-10-22T04:53:25.295Z,60078.84
2022-10-22T04:55:51.787Z,60107.84
2022-10-22T04:58:18.312Z,60105.78
2022-10-22T05:00:44.777Z,60118.19
2022-10-22T05:03:11.237Z,59991.88
2022-10-22T05:05:37.631Z,60018.78
2022-10-22T05:08:04.126Z,60004.31
2022-10-22T05:10:30.727Z,60006.38
2022-10-22T05:12:57.234Z,60000.16
2022-10-22T05:15:23.617Z,60022.94
2022-10-22T05:17:50.213Z,59927.69
2022-10-22T05:20:16.626Z,59956.66
2022-10-22T05:22:43.025Z,59946.31
2022-10-22T05:25:09.603Z,59904.91
2022-10-22T05:27:36.036Z,60186.53
2022-10-22T05:30:02.942Z,60103.69
2022-10-22T05:32:29.339Z,59923.53
2022-10-22T05:34:55.749Z,59977.38
2022-10-22T05:37:22.117Z,59971.16
2022-10-22T05:39:54.420Z,59906.97
2022-10-22T05:42:31.992Z,59923.53
2022-10-22T05:44:58.369Z,59989.81
2022-10-22T05:47:24.975Z,59927.69
2022-10-22T05:49:51.368Z,59940.09
2022-10-22T05:52:17.793Z,59855.19
2022-10-22T05:54:44.174Z,59877.97
2022-10-22T05:57:10.559Z,59940.09
2022-10-22T05:59:36.951Z,59962.88
2022-10-22T06:02:03.484Z,59989.81
2022-10-22T06:04:29.981Z,59898.69
2022-10-22T06:06:56.431Z,60002.22
2022-10-22T06:09:31.910Z,59998.09
2022-10-22T06:11:58.797Z,59929.75
2022-10-22T06:14:25.810Z,59960.81
2022-10-22T06:16:52.641Z,59958.75
2022-10-22T06:19:21.263Z,59938.03
2022-10-22T06:21:48.308Z,59902.84
2022-10-22T06:24:15.680Z,59954.59
2022-10-22T06:26:42.146Z,60275.59
2022-10-22T06:29:08.850Z,60018.78
2022-10-22T06:31:38.168Z,59942.19
2022-10-22T06:34:06.698Z,59981.53
2022-10-22T06:36:33.141Z,59973.25
2022-10-22T06:38:59.577Z,59940.09
2022-10-22T06:41:29.494Z,60114.06
2022-10-22T06:43:57.302Z,59993.94
2022-10-22T06:46:24.891Z,59960.81
2022-10-22T06:48:56.419Z,59973.25
2022-10-22T06:51:23.225Z,60006.38
2022-10-22T06:53:50.230Z,60006.38
2022-10-22T06:56:20.164Z,60035.38
2022-10-22T06:58:50.746Z,60037.44
2022-10-22T07:01:19.534Z,60076.78
2022-10-22T07:03:46.176Z,60105.78
2022-10-22T07:06:14.415Z,60114.06
2022-10-22T07:08:41.931Z,60136.84
2022-10-22T07:11:13.564Z,60167.91
2022-10-22T07:13:40.528Z,60393.63
2022-10-22T07:16:07.869Z,60273.53
2022-10-22T07:18:34.929Z,60230.03
2022-10-22T07:21:02.062Z,60379.13
2022-10-22T07:23:29.302Z,60412.28
2022-10-22T07:28:23.355Z,60488.91
2022-10-22T07:30:49.816Z,60687.72
2022-10-22T07:33:16.260Z,60519.97
2022-10-22T07:35:43.066Z,60834.78
2022-10-22T07:38:09.522Z,60745.72
2022-10-22T07:40:36.263Z,60530.31
2022-10-22T07:43:02.845Z,60563.47
2022-10-22T07:45:29.241Z,60511.69
2022-10-22T07:47:55.701Z,60867.94
2022-10-22T07:50:22.207Z,60859.66
2022-10-22T07:52:48.637Z,60569.69
2022-10-22T07:55:15.236Z,60648.38
2022-10-22T07:57:41.616Z,60623.53
2022-10-22T08:00:09.484Z,60638.03
2022-10-22T08:02:36.110Z,60650.44
2022-10-22T08:05:02.480Z,60706.38
2022-10-22T08:07:28.907Z,60573.81
2022-10-22T08:09:55.377Z,60619.38
2022-10-22T08:12:21.769Z,60513.75
2022-10-22T08:14:48.335Z,60689.81
2022-10-22T08:17:15.052Z,60859.66
2022-10-22T08:19:41.438Z,60722.94
2022-10-22T08:22:08.103Z,60836.88
2022-10-22T08:24:34.566Z,60826.50
2022-10-22T08:27:01.293Z,60855.50
2022-10-22T08:29:27.832Z,60801.66
2022-10-22T08:31:54.321Z,60764.38
2022-10-22T08:34:20.863Z,60573.81
2022-10-22T08:36:47.330Z,60814.06
2022-10-22T08:39:13.998Z,61089.56
2022-10-22T08:41:52.542Z,60799.59
2022-10-22T08:44:37.230Z,60770.59
2022-10-22T08:47:25.546Z,60764.38
2022-10-22T08:49:53.503Z,60687.72
2022-10-22T08:52:20.109Z,60747.81
2022-10-22T08:54:52.403Z,60826.50
2022-10-22T08:57:40.446Z,60882.44
2022-10-22T09:00:17.913Z,60832.72
2022-10-22T09:03:02.744Z,60859.66
2022-10-22T09:05:35.251Z,60894.84
2022-10-22T09:08:02.021Z,61122.72
2022-10-22T09:10:33.230Z,60874.16
2022-10-22T09:12:59.684Z,60930.06
2022-10-22T09:15:26.923Z,60797.50
2022-10-22T09:18:03.035Z,61240.78
2022-10-22T09:20:35.282Z,60950.78
2022-10-22T09:23:16.979Z,60863.78
2022-10-22T09:25:44.849Z,60938.34
2022-10-22T09:28:11.661Z,61137.22
2022-10-22T09:30:39.129Z,60963.22
2022-10-22T09:33:14.598Z,61004.63
2022-10-22T09:35:44.046Z,61075.06
2022-10-22T09:38:13.651Z,61008.78
2022-10-22T09:40:49.741Z,61002.56
2022-10-22T09:43:16.698Z,60952.84
2022-10-22T09:45:43.755Z,60917.63
2022-10-22T09:48:30.424Z,60921.78
2022-10-22T09:51:18.770Z,61044.00
2022-10-22T09:53:48.327Z,61037.78
2022-10-22T09:56:24.479Z,61046.06
2022-10-22T09:58:51.789Z,61238.72
2022-10-22T10:01:22.235Z,60971.50
2022-10-22T10:03:50.171Z,60996.34
2022-10-22T10:06:21.394Z,60994.28
2022-10-22T10:08:48.520Z,61143.41
2022-10-22T10:11:29.120Z,61041.91
2022-10-22T10:14:02.121Z,61048.13
2022-10-22T10:16:42.502Z,60990.13
2022-10-22T10:19:21.850Z,61046.06
2022-10-22T10:22:08.145Z,61267.72
2022-10-22T10:24:52.383Z,61137.22
2022-10-22T10:27:40.952Z,61356.78
2022-10-22T10:30:21.599Z,61180.72
2022-10-22T10:33:15.999Z,61108.22
2022-10-22T10:36:07.540Z,61062.63
2022-10-22T10:38:51.893Z,61054.34
2022-10-22T10:41:31.881Z,61160.00
2022-10-22T10:44:33.952Z,61174.50
2022-10-22T10:47:06.622Z,61176.56
2022-10-22T10:49:35.047Z,61116.50
2022-10-22T10:52:01.347Z,61178.63
2022-10-22T10:54:27.913Z,61172.41
2022-10-22T10:57:04.570Z,61164.13
2022-10-22T10:59:54.573Z,61124.78
2022-10-22T11:02:52.075Z,61112.34
2022-10-22T11:05:38.476Z,61236.63
2022-10-22T11:08:16.285Z,61197.28
2022-10-22T11:10:48.999Z,61124.78
2022-10-22T11:13:30.467Z,61087.50
2022-10-22T11:16:20.170Z,61184.84
2022-10-22T11:18:49.515Z,61215.91
2022-10-22T11:21:23.975Z,61193.13
2022-10-22T11:23:53.831Z,61220.06
2022-10-22T11:26:45.524Z,61222.13
2022-10-22T11:29:17.385Z,61273.94
2022-10-22T11:31:44.444Z,61180.72
2022-10-22T11:34:33.138Z,61081.28
2022-10-22T11:37:01.364Z,61271.84
2022-10-22T11:39:39.288Z,61209.72
2022-10-22T11:42:11.684Z,61263.56
2022-10-22T11:45:27.878Z,61261.50
2022-10-22T11:48:09.548Z,61162.06
2022-10-22T11:50:56.650Z,61162.06
2022-10-22T11:53:26.022Z,61164.13
2022-10-22T11:55:55.338Z,61182.78
2022-10-22T11:58:30.594Z,61294.63
2022-10-22T12:01:03.116Z,61176.56
2022-10-22T12:03:32.193Z,61228.34
2022-10-22T12:06:04.822Z,61207.63
2022-10-22T12:08:32.769Z,61489.38
2022-10-22T12:11:11.362Z,61149.63
2022-10-22T12:13:50.182Z,61153.78
2022-10-22T12:16:23.596Z,61085.41
2022-10-22T12:19:05.577Z,61128.91
2022-10-22T12:21:33.640Z,61085.41
2022-10-22T12:24:00.991Z,61120.63
2022-10-22T12:29:01.077Z,61147.56
2022-10-22T12:31:28.662Z,61124.78
2022-10-22T12:33:59.244Z,61178.63
2022-10-22T12:36:27.279Z,61201.41
2022-10-22T12:38:53.671Z,61228.34
2022-10-22T12:41:21.679Z,61421.00
2022-10-22T12:43:48.102Z,61327.78
2022-10-22T12:46:16.354Z,61547.38
2022-10-22T12:48:44.426Z,61657.16
2022-10-22T12:51:19.418Z,61733.81
2022-10-22T12:53:50.948Z,61601.22
2022-10-22T12:56:25.815Z,61601.22
2022-10-22T12:59:00.876Z,61510.09
2022-10-22T13:01:31.363Z,61481.06
2022-10-22T13:04:13.706Z,61365.06
2022-10-22T13:06:44.607Z,61302.94
2022-10-22T13:09:23.938Z,61340.22
2022-10-22T13:11:58.058Z,61315.34
2022-10-22T13:14:32.685Z,61278.06
2022-10-22T13:17:18.044Z,61441.72
2022-10-22T13:20:02.001Z,61418.94
2022-10-22T13:22:34.564Z,61495.56
2022-10-22T13:25:13.033Z,61365.06
2022-10-22T13:27:52.714Z,61418.94
2022-10-22T13:30:32.384Z,61427.22
2022-10-22T13:33:01.166Z,61389.94
2022-10-22T13:35:38.094Z,61294.63
2022-10-22T13:38:14.870Z,61170.34
2022-10-22T13:40:41.281Z,61367.13
2022-10-22T13:43:07.643Z,61387.84
2022-10-22T13:45:34.030Z,61731.75
2022-10-22T13:48:00.429Z,61568.09
2022-10-22T13:50:26.819Z,61539.09
2022-10-22T13:52:55.532Z,61827.06
2022-10-22T13:55:27.395Z,61999.00
2022-10-22T13:57:59.846Z,61520.44
2022-10-22T14:00:26.635Z,61559.81
2022-10-22T14:02:54.734Z,61518.38
2022-10-22T14:05:21.689Z,61425.16
2022-10-22T14:07:48.563Z,61458.28
2022-10-22T14:10:15.069Z,61512.16
2022-10-22T14:12:42.267Z,61489.38
2022-10-22T14:15:11.409Z,61435.50
2022-10-22T14:17:38.746Z,61445.84
2022-10-22T14:20:05.737Z,61394.06
2022-10-22T14:22:32.226Z,61470.72
2022-10-22T14:24:58.596Z,61404.44
2022-10-22T14:27:25.063Z,61257.34
2022-10-22T14:29:54.013Z,61294.63
2022-10-22T14:32:23.741Z,61290.50
2022-10-22T14:34:50.584Z,61261.50
2022-10-22T14:37:19.346Z,61193.13
2022-10-22T14:39:51.832Z,61249.06
2022-10-22T14:42:19.709Z,61247.00
2022-10-22T14:44:46.443Z,61389.94
2022-10-22T14:47:12.981Z,61323.63
2022-10-22T14:49:39.471Z,61313.28
2022-10-22T14:52:05.874Z,61251.13
2022-10-22T14:54:33.178Z,61178.63
2022-10-22T14:56:59.550Z,61139.28
2022-10-22T14:59:25.944Z,61056.41
2022-10-22T15:01:52.407Z,61145.50
2022-10-22T15:04:18.928Z,61195.22
2022-10-22T15:06:45.355Z,61162.06
2022-10-22T15:09:11.824Z,61137.22
2022-10-22T15:11:38.233Z,61160.00
2022-10-22T15:14:04.682Z,61089.56
2022-10-22T15:16:31.129Z,61083.34
2022-10-22T15:18:57.559Z,61112.34
2022-10-22T15:21:23.937Z,61128.91
2022-10-22T15:23:50.433Z,61037.78
2022-10-22T15:26:17.444Z,61334.00
2022-10-22T15:28:44.282Z,61064.72
2022-10-22T15:31:13.868Z,61128.91
2022-10-22T15:33:40.996Z,61104.06
2022-10-22T15:36:16.135Z,61168.28
2022-10-22T15:38:42.521Z,61184.84
2022-10-22T15:41:11.865Z,61195.22
2022-10-22T15:43:38.451Z,61075.06
2022-10-22T15:46:16.117Z,61073.00
2022-10-22T15:48:42.793Z,61056.41
2022-10-22T15:51:14.453Z,60979.78
2022-10-22T15:53:41.333Z,60876.22
2022-10-22T15:56:08.133Z,60884.50
2022-10-22T15:58:34.609Z,60803.72
2022-10-22T16:01:08.920Z,60760.22
2022-10-22T16:03:35.907Z,61004.63
2022-10-22T16:06:03.061Z,60693.94
2022-10-22T16:08:29.930Z,60681.53
2022-10-22T16:10:56.751Z,60901.06
2022-10-22T16:13:24.597Z,60464.06
2022-10-22T16:15:51.261Z,60457.84
2022-10-22T16:18:18.601Z,60414.34
2022-10-22T16:20:45.208Z,60375.00
2022-10-22T16:23:11.730Z,60252.81
2022-10-22T16:25:42.081Z,60217.59
2022-10-22T16:28:09.554Z,60184.47
2022-10-22T16:30:37.150Z,60184.47
2022-10-22T16:33:05.113Z,60076.78
2022-10-22T16:35:31.998Z,59973.25
2022-10-22T16:37:58.596Z,60043.66
2022-10-22T16:40:26.591Z,59886.25
2022-10-22T16:42:53.292Z,60236.25
2022-10-22T16:45:19.681Z,59799.28
2022-10-22T16:47:46.943Z,59826.22
2022-10-22T16:50:20.271Z,59811.72
2022-10-22T16:52:46.668Z,60178.25
2022-10-22T16:55:13.064Z,59695.75
2022-10-22T16:57:39.711Z,59668.84
2022-10-22T17:00:07.314Z,59619.16
2022-10-22T17:02:35.195Z,59579.81
2022-10-22T17:05:01.571Z,59496.97
2022-10-22T17:07:27.930Z,59565.31
2022-10-22T17:09:54.346Z,59650.19
2022-10-22T17:12:20.996Z,59546.66
2022-10-22T17:14:47.347Z,59521.81
2022-10-22T17:17:13.922Z,59571.53
2022-10-22T17:19:40.335Z,59586.00
2022-10-22T17:22:08.989Z,59511.47
2022-10-22T17:24:36.095Z,59519.75
2022-10-22T17:29:36.268Z,59453.50
2022-10-22T17:32:02.990Z,59434.88
2022-10-22T17:34:32.989Z,59459.72
2022-10-22T17:37:00.170Z,59579.81
2022-10-22T17:39:26.872Z,59366.53
2022-10-22T17:41:53.367Z,59358.25
2022-10-22T17:44:19.777Z,59356.19
2022-10-22T17:46:46.329Z,59358.25
2022-10-22T17:49:17.159Z,59314.78
2022-10-22T17:51:43.794Z,59372.75
2022-10-22T17:54:10.488Z,59320.97
2022-10-22T17:56:38.732Z,59285.78
2022-10-22T17:59:05.111Z,59294.06
2022-10-22T18:01:34.360Z,59401.72
2022-10-22T18:04:04.460Z,59335.47
2022-10-22T18:06:31.514Z,59248.53
2022-10-22T18:08:58.330Z,59294.06
2022-10-22T18:11:27.122Z,59252.66
2022-10-22T18:13:55.663Z,59165.69
2022-10-22T18:16:22.456Z,59205.03
2022-10-22T18:18:55.166Z,59219.53
2022-10-22T18:21:22.985Z,59196.75
2022-10-22T18:23:49.668Z,59103.59
2022-10-22T18:26:18.463Z,59161.56
2022-10-22T18:28:48.849Z,59122.22
2022-10-22T18:31:23.367Z,59111.88
2022-10-22T18:33:50.316Z,59107.72
2022-10-22T18:36:19.755Z,59095.31
2022-10-22T18:38:50.764Z,59074.59
2022-10-22T18:41:17.110Z,59103.59
2022-10-22T18:43:43.523Z,59420.38
2022-10-22T18:46:10.317Z,59084.97
2022-10-22T18:48:36.914Z,59016.63
2022-10-22T18:51:09.148Z,59089.09
2022-10-22T18:53:37.547Z,59120.16
2022-10-22T18:56:08.603Z,59062.19
2022-10-22T18:58:38.684Z,59070.47
2022-10-22T19:01:09.841Z,59039.41
2022-10-22T19:03:36.574Z,59109.81
2022-10-22T19:06:03.101Z,59053.91
2022-10-22T19:08:29.501Z,59113.94
2022-10-22T19:10:56.035Z,59029.06
2022-10-22T19:13:25.355Z,58985.59
2022-10-22T19:15:52.419Z,59033.19
2022-10-22T19:18:19.984Z,59149.13
2022-10-22T19:20:47.963Z,59053.91
2022-10-22T19:23:18.487Z,59072.53
2022-10-22T19:25:47.072Z,59060.13
2022-10-22T19:28:13.459Z,59029.06
2022-10-22T19:30:40.869Z,59084.97
2022-10-22T19:33:07.593Z,59084.97
2022-10-22T19:35:36.501Z,59047.69
2022-10-22T19:38:02.914Z,59087.03
2022-10-22T19:40:29.335Z,58979.38
2022-10-22T19:42:55.768Z,59552.88
2022-10-22T19:45:22.198Z,59095.31
2022-10-22T19:47:48.639Z,59118.09
2022-10-22T19:50:15.100Z,59089.09
2022-10-22T19:52:41.649Z,59111.88
2022-10-22T19:55:09.958Z,59033.19
2022-10-22T19:57:37.621Z,59020.78
2022-10-22T20:00:05.932Z,59060.13
2022-10-22T20:02:32.425Z,59091.16
2022-10-22T20:04:58.834Z,59082.88
2022-10-22T20:07:25.224Z,59082.88
2022-10-22T20:09:51.614Z,59109.81
2022-10-22T20:12:17.975Z,59095.31
2022-10-22T20:14:44.355Z,59105.66
2022-10-22T20:17:10.738Z,59111.88
2022-10-22T20:19:37.164Z,59120.16
2022-10-22T20:22:03.663Z,59302.34
2022-10-22T20:24:30.100Z,59120.16
2022-10-22T20:26:56.516Z,59211.25
2022-10-22T20:29:22.935Z,59219.53
2022-10-22T20:31:49.322Z,59246.44
2022-10-22T20:34:15.836Z,59209.19
2022-10-22T20:36:42.484Z,59424.50
2022-10-22T20:39:13.268Z,59252.66
2022-10-22T20:41:40.526Z,59314.78
2022-10-22T20:44:11.449Z,59325.13
2022-10-22T20:46:37.824Z,59302.34
2022-10-22T20:49:06.316Z,59318.91
2022-10-22T20:51:33.029Z,59397.59
2022-10-22T20:53:59.487Z,59308.56
2022-10-22T20:56:26.755Z,59318.91
2022-10-22T20:59:03.952Z,59352.03
2022-10-22T21:01:36.886Z,59335.47
2022-10-22T21:04:03.997Z,59283.72
2022-10-22T21:06:30.466Z,59329.25
2022-10-22T21:08:56.882Z,59231.97
2022-10-22T21:11:23.396Z,59795.16
2022-10-22T21:13:52.352Z,59360.31
2022-10-22T21:16:19.607Z,59320.97
2022-10-22T21:18:46.853Z,59391.38
2022-10-22T21:21:13.521Z,59341.69
2022-10-22T21:23:40.220Z,59356.19
2022-10-22T21:26:06.892Z,59323.06
2022-10-22T21:28:35.537Z,59327.19
2022-10-22T21:31:07.543Z,59424.50
2022-10-22T21:33:41.343Z,59699.91
2022-10-22T21:36:09.075Z,59364.47
2022-10-22T21:38:36.181Z,59356.19
2022-10-22T21:41:07.165Z,59356.19
2022-10-22T21:43:33.773Z,59354.13
2022-10-22T21:46:08.484Z,59691.63
2022-10-22T21:48:35.989Z,59349.97
2022-10-22T21:51:08.129Z,59335.47
2022-10-22T21:53:34.844Z,59300.28
2022-10-22T21:56:01.307Z,59310.63
2022-10-22T21:58:27.688Z,59598.44
2022-10-22T22:00:55.682Z,59316.84
2022-10-22T22:03:22.654Z,59294.06
2022-10-22T22:05:51.491Z,59281.66
2022-10-22T22:08:18.963Z,59231.97
2022-10-22T22:10:45.415Z,59298.22
2022-10-22T22:13:11.858Z,59287.84
2022-10-22T22:15:38.299Z,59252.66
2022-10-22T22:18:04.863Z,59298.22
2022-10-22T22:20:31.353Z,59277.50
2022-10-22T22:22:57.771Z,59316.84
2022-10-22T22:25:24.186Z,59294.06
2022-10-22T22:27:50.582Z,59256.81
2022-10-22T22:30:17.843Z,59432.78
2022-10-22T22:32:44.247Z,59300.28
2022-10-22T22:35:10.651Z,59231.97
2022-10-22T22:37:37.007Z,59240.25
2022-10-22T22:40:03.571Z,59182.25
2022-10-22T22:42:29.951Z,59173.97
2022-10-22T22:44:56.331Z,59176.06
2022-10-22T22:47:22.756Z,59196.75
2022-10-22T22:49:49.157Z,59180.19
2022-10-22T22:52:15.567Z,59325.13
2022-10-22T22:54:41.980Z,59192.63
2022-10-22T22:57:08.342Z,59488.69
2022-10-22T22:59:34.843Z,59134.66
2022-10-22T23:02:01.323Z,59060.13
2022-10-22T23:04:30.194Z,59084.97
2022-10-22T23:06:56.600Z,59496.97
2022-10-22T23:09:23.040Z,59128.44
2022-10-22T23:11:50.261Z,59186.41
2022-10-22T23:14:18.246Z,59149.13
2022-10-22T23:16:50.229Z,59198.81
2022-10-22T23:19:19.441Z,59182.25
2022-10-22T23:21:48.395Z,59082.88
2022-10-22T23:24:16.926Z,59157.41
2022-10-22T23:26:46.046Z,59095.31
2022-10-22T23:29:16.776Z,59132.56
2022-10-22T23:31:43.705Z,59418.28
2022-10-22T23:34:11.738Z,59014.56
2022-10-22T23:36:38.807Z,59101.53
2022-10-22T23:39:06.897Z,59103.59
2022-10-22T23:41:33.531Z,59107.72
2022-10-22T23:44:00.144Z,59120.16
2022-10-22T23:46:26.606Z,59027.00
2022-10-22T23:48:53.742Z,59159.50
2022-10-22T23:51:21.096Z,59116.00
2022-10-22T23:53:53.137Z,59169.84
2022-10-22T23:56:19.595Z,59140.84
2022-10-22T23:58:51.348Z,59190.53
